createdAt,value
2023-02-03T00:04:20.708Z,101777.00
2023-02-03T00:09:23.129Z,101773.00
2023-02-03T00:14:25.399Z,101759.00
2023-02-03T00:19:28.969Z,101765.00
2023-02-03T00:24:31.157Z,101777.00
2023-02-03T00:29:33.534Z,101768.00
2023-02-03T00:34:37.245Z,101767.00
2023-02-03T00:39:39.679Z,101752.00
2023-02-03T00:44:42.043Z,101737.00
2023-02-03T00:49:45.702Z,101725.00
2023-02-03T00:54:48.027Z,101724.00
2023-02-03T00:59:50.215Z,101713.00
2023-02-03T01:04:53.756Z,101713.00
2023-02-03T01:09:56.235Z,101707.00
2023-02-03T01:14:59.173Z,101724.00
2023-02-03T01:20:03.995Z,101712.00
2023-02-03T01:25:07.500Z,101692.00
2023-02-03T01:30:11.767Z,101671.00
2023-02-03T01:35:15.769Z,101666.00
2023-02-03T01:40:19.178Z,101671.00
2023-02-03T01:45:21.626Z,101651.00
2023-02-03T01:50:31.029Z,101659.00
2023-02-03T01:55:39.478Z,101650.00
2023-02-03T02:00:42.504Z,101662.00
2023-02-03T02:05:53.552Z,101654.00
2023-02-03T02:10:56.660Z,101652.00
2023-02-03T02:16:07.939Z,101640.00
2023-02-03T02:21:57.029Z,101630.00
2023-02-03T02:27:09.767Z,101600.00
2023-02-03T02:32:34.909Z,101589.00
2023-02-03T02:37:50.631Z,101579.00
2023-02-03T02:43:08.245Z,101570.00
2023-02-03T02:48:21.433Z,101573.00
2023-02-03T02:53:29.383Z,101562.00
2023-02-03T02:58:35.319Z,101556.00
2023-02-03T03:03:39.080Z,101565.00
2023-02-03T03:08:49.191Z,101553.00
2023-02-03T03:13:55.632Z,101552.00
2023-02-03T03:19:05.431Z,101551.00
2023-02-03T03:24:14.149Z,101551.00
2023-02-03T03:29:22.875Z,101550.00
2023-02-03T03:34:27.801Z,101542.00
2023-02-03T03:39:42.780Z,101544.00
2023-02-03T03:44:52.788Z,101531.00
2023-02-03T03:50:01.303Z,101523.00
2023-02-03T03:55:08.787Z,101522.00
2023-02-03T04:00:17.438Z,101510.00
2023-02-03T04:05:22.435Z,101511.00
2023-02-03T04:10:32.767Z,101495.00
2023-02-03T04:15:35.866Z,101488.00
2023-02-03T04:20:39.484Z,101489.00
2023-02-03T04:25:41.894Z,101492.00
2023-02-03T04:30:44.414Z,101477.00
2023-02-03T04:35:48.029Z,101471.00
2023-02-03T04:40:50.361Z,101466.00
2023-02-03T04:45:52.701Z,101446.00
2023-02-03T04:51:01.197Z,101454.00
2023-02-03T04:56:04.160Z,101436.00
2023-02-03T05:01:08.728Z,101432.00
2023-02-03T05:06:12.245Z,101419.00
2023-02-03T05:11:14.393Z,101406.00
2023-02-03T05:16:16.768Z,101386.00
2023-02-03T05:21:20.819Z,101390.00
2023-02-03T05:26:23.839Z,101371.00
2023-02-03T05:31:26.084Z,101355.00
2023-02-03T05:36:29.722Z,101356.00
2023-02-03T05:41:32.043Z,101344.00
2023-02-03T05:46:34.300Z,101342.00
2023-02-03T05:51:39.375Z,101327.00
2023-02-03T05:56:41.753Z,101314.00
2023-02-03T06:01:44.046Z,101297.00
2023-02-03T06:06:48.127Z,101297.00
2023-02-03T06:11:50.336Z,101294.00
2023-02-03T06:16:52.698Z,101294.00
2023-02-03T06:21:56.269Z,101283.00
2023-02-03T06:26:58.541Z,101266.00
2023-02-03T06:32:00.960Z,101264.00
2023-02-03T06:37:04.959Z,101248.00
2023-02-03T06:42:07.529Z,101246.00
2023-02-03T06:47:09.752Z,101219.00
2023-02-03T06:52:13.551Z,101206.00
2023-02-03T06:57:15.734Z,101202.00
2023-02-03T07:02:18.715Z,101190.00
2023-02-03T07:07:22.458Z,101169.00
2023-02-03T07:12:24.933Z,101164.00
2023-02-03T07:17:27.497Z,101146.00
2023-02-03T07:22:31.183Z,101120.00
2023-02-03T07:27:33.655Z,101110.00
2023-02-03T07:32:36.119Z,101096.00
2023-02-03T07:37:40.283Z,101093.00
2023-02-03T07:42:43.899Z,101090.00
2023-02-03T07:47:46.415Z,101077.00
2023-02-03T07:52:52.329Z,101062.00
2023-02-03T07:57:55.339Z,101044.00
2023-02-03T08:02:57.637Z,101035.00
2023-02-03T08:08:01.244Z,101005.00
2023-02-03T08:13:03.622Z,101001.00
2023-02-03T08:18:06.244Z,100986.00
2023-02-03T08:23:10.055Z,100982.00
2023-02-03T08:28:12.629Z,100966.00
2023-02-03T08:33:15.071Z,100949.00
2023-02-03T08:38:18.968Z,100940.00
2023-02-03T08:43:21.454Z,100925.00
2023-02-03T08:48:23.917Z,100909.00
2023-02-03T08:53:29.840Z,100882.00
2023-02-03T08:58:32.518Z,100875.00
2023-02-03T09:03:35.122Z,100860.00
2023-02-03T09:08:39.568Z,100852.00
2023-02-03T09:13:42.618Z,100826.00
2023-02-03T09:18:45.782Z,100824.00
2023-02-03T09:23:49.470Z,100807.00
2023-02-03T09:28:53.246Z,100798.00
2023-02-03T09:33:55.817Z,100793.00
2023-02-03T09:38:59.794Z,100775.00
2023-02-03T09:44:14.263Z,100764.00
2023-02-03T09:49:25.761Z,100746.00
2023-02-03T09:54:42.718Z,100732.00
2023-02-03T09:59:45.125Z,100712.00
2023-02-03T10:04:58.753Z,100691.00
2023-02-03T10:10:17.777Z,100669.00
2023-02-03T10:15:46.023Z,100655.00
2023-02-03T10:20:53.144Z,100643.00
2023-02-03T10:26:01.257Z,100624.00
2023-02-03T10:31:16.969Z,100608.00
2023-02-03T10:36:31.398Z,100568.00
2023-02-03T10:41:35.526Z,100545.00
2023-02-03T10:46:41.452Z,100521.00
2023-02-03T10:51:51.200Z,100500.00
2023-02-03T10:57:01.636Z,100493.00
2023-02-03T11:02:10.273Z,100483.00
2023-02-03T11:07:26.419Z,100454.00
2023-02-03T11:12:30.235Z,100444.00
2023-02-03T11:17:36.936Z,100430.00
2023-02-03T11:22:42.037Z,100423.00
2023-02-03T11:27:47.014Z,100402.00
2023-02-03T11:32:50.916Z,100366.00
2023-02-03T11:37:55.884Z,100343.00
2023-02-03T11:43:17.947Z,100333.00
2023-02-03T11:48:31.220Z,100323.00
2023-02-03T11:53:58.671Z,100290.00
2023-02-03T11:59:34.128Z,100264.00
2023-02-03T12:05:04.361Z,100235.00
2023-02-03T12:10:21.566Z,100213.00
2023-02-03T12:15:56.508Z,100199.00
2023-02-03T12:21:17.155Z,100188.00
2023-02-03T12:26:23.644Z,100159.00
2023-02-03T12:31:38.567Z,100148.00
2023-02-03T12:36:47.386Z,100138.00
2023-02-03T12:41:59.807Z,100140.00
2023-02-03T12:47:15.283Z,100127.00
2023-02-03T12:52:25.065Z,100113.00
2023-02-03T12:57:34.581Z,100102.00
2023-02-03T13:02:54.986Z,100108.00
2023-02-03T13:08:11.969Z,100100.00
2023-02-03T13:13:23.233Z,100098.00
2023-02-03T13:18:32.493Z,100084.00
2023-02-03T13:23:34.910Z,100088.00
2023-02-03T13:29:10.950Z,100074.00
2023-02-03T13:34:37.066Z,100075.00
2023-02-03T13:39:55.665Z,100061.00
2023-02-03T13:45:08.221Z,100052.00
2023-02-03T13:50:22.847Z,100044.00
2023-02-03T13:55:33.447Z,100046.00
2023-02-03T14:01:32.405Z,100035.00
2023-02-03T14:07:02.477Z,100027.00
2023-02-03T14:13:00.362Z,100027.00
2023-02-03T14:18:20.110Z,100015.00
2023-02-03T14:23:35.292Z,100008.00
2023-02-03T14:28:42.411Z,100009.00
2023-02-03T14:34:08.515Z,100013.00
2023-02-03T14:40:11.774Z,100026.00
2023-02-03T14:45:36.622Z,100023.00
2023-02-03T14:50:59.388Z,100035.00
2023-02-03T14:56:19.074Z,100030.00
2023-02-03T15:01:47.815Z,100034.00
2023-02-03T15:06:53.310Z,100043.00
2023-02-03T15:11:56.907Z,100050.00
2023-02-03T15:17:02.488Z,100058.00
2023-02-03T15:22:20.176Z,100058.00
2023-02-03T15:27:27.153Z,100075.00
2023-02-03T15:32:36.724Z,100088.00
2023-02-03T15:37:47.754Z,100096.00
2023-02-03T15:43:00.109Z,100090.00
2023-02-03T15:48:12.061Z,100099.00
2023-02-03T15:53:22.302Z,100097.00
2023-02-03T15:58:30.973Z,100098.00
2023-02-03T16:03:39.608Z,100105.00
2023-02-03T16:08:45.119Z,100108.00
2023-02-03T16:13:49.162Z,100113.00
2023-02-03T16:18:55.139Z,100123.00
2023-02-03T16:23:57.968Z,100111.00
2023-02-03T16:29:14.926Z,100126.00
2023-02-03T16:34:19.549Z,100133.00
2023-02-03T16:39:21.751Z,100142.00
2023-02-03T16:44:25.269Z,100160.00
2023-02-03T16:49:27.606Z,100177.00
2023-02-03T16:54:29.789Z,100189.00
2023-02-03T16:59:33.739Z,100200.00
2023-02-03T17:04:36.034Z,100205.00
2023-02-03T17:09:38.385Z,100202.00
2023-02-03T17:14:42.212Z,100208.00
2023-02-03T17:19:44.724Z,100220.00
2023-02-03T17:24:47.276Z,100225.00
2023-02-03T17:29:51.107Z,100233.00
2023-02-03T17:34:53.530Z,100236.00
2023-02-03T17:55:56.601Z,100264.00
2023-02-03T18:01:01.118Z,100271.00
2023-02-03T18:06:04.765Z,100280.00
2023-02-03T18:11:08.066Z,100296.00
2023-02-03T18:16:14.910Z,100298.00
2023-02-03T18:21:17.249Z,100302.00
2023-02-03T18:26:22.079Z,100315.00
2023-02-03T18:31:26.873Z,100316.00
2023-02-03T18:36:30.170Z,100314.00
2023-02-03T18:41:33.828Z,100319.00
2023-02-03T18:46:38.465Z,100338.00
2023-02-03T18:51:40.685Z,100325.00
2023-02-03T18:56:42.877Z,100332.00
2023-02-03T19:01:47.025Z,100330.00
2023-02-03T19:06:50.208Z,100349.00
2023-02-03T19:11:53.219Z,100343.00
2023-02-03T19:16:57.261Z,100381.00
2023-02-03T19:22:00.860Z,100404.00
2023-02-03T19:27:04.727Z,100410.00
2023-02-03T19:32:08.685Z,100420.00
2023-02-03T19:37:12.165Z,100428.00
2023-02-03T19:42:16.135Z,100430.00
2023-02-03T19:47:22.199Z,100450.00
2023-02-03T19:52:25.437Z,100466.00
2023-02-03T19:57:27.782Z,100476.00
2023-02-03T20:02:31.813Z,100479.00
2023-02-03T20:07:35.172Z,100495.00
2023-02-03T20:12:38.579Z,100508.00
2023-02-03T20:17:43.080Z,100522.00
2023-02-03T20:22:46.408Z,100521.00
2023-02-03T20:27:49.433Z,100531.00
2023-02-03T20:32:53.852Z,100541.00
2023-02-03T20:37:57.090Z,100563.00
2023-02-03T20:43:00.691Z,100574.00
2023-02-03T20:48:10.225Z,100577.00
2023-02-03T20:53:15.410Z,100601.00
2023-02-03T20:58:21.972Z,100615.00
2023-02-03T21:03:26.950Z,100620.00
2023-02-03T21:08:29.601Z,100637.00
2023-02-03T21:13:36.203Z,100653.00
2023-02-03T21:18:48.550Z,100668.00
2023-02-03T21:23:53.170Z,100689.00
2023-02-03T21:28:57.980Z,100710.00
2023-02-03T21:34:06.679Z,100730.00
2023-02-03T21:39:29.262Z,100756.00
2023-02-03T21:44:34.848Z,100770.00
2023-02-03T21:49:38.588Z,100816.00
2023-02-03T21:54:42.246Z,100816.00
2023-02-03T21:59:46.172Z,100847.00
2023-02-03T22:04:51.083Z,100899.00
2023-02-03T22:09:53.388Z,100891.00
2023-02-03T22:14:55.635Z,100905.00
2023-02-03T22:19:59.271Z,100947.00
2023-02-03T22:25:02.351Z,100958.00
2023-02-03T22:30:06.368Z,100974.00
2023-02-03T22:35:10.528Z,100994.00
2023-02-03T22:40:13.481Z,101008.00
2023-02-03T22:45:16.179Z,101023.00
2023-02-03T22:50:34.323Z,101050.00
2023-02-03T22:55:38.783Z,101075.00
2023-02-03T23:00:40.920Z,101087.00
2023-02-03T23:05:44.421Z,101090.00
2023-02-03T23:10:46.556Z,101117.00
2023-02-03T23:15:48.840Z,101137.00
2023-02-03T23:20:52.554Z,101184.00
2023-02-03T23:25:54.687Z,101187.00
2023-02-03T23:30:56.873Z,101201.00
2023-02-03T23:36:00.402Z,101225.00
2023-02-03T23:41:02.529Z,101248.00
2023-02-03T23:46:05.101Z,101254.00
2023-02-03T23:51:08.833Z,101258.00
2023-02-03T23:56:11.016Z,101280.00
